sensor_id;sensor_type;location;lat;lon;timestamp;P1;durP1;ratioP1;P2;durP2;ratioP2
20161;SDS011;51382;53.180;15.414;2022-08-05T00:13:45;34.40;;;7.70;;
20161;SDS011;51382;53.180;15.414;2022-08-05T00:28:56;31.70;;;7.40;;
20161;SDS011;51382;53.180;15.414;2022-08-05T00:44:07;36.00;;;7.40;;
20161;SDS011;51382;53.180;15.414;2022-08-05T00:59:18;33.40;;;7.70;;
20161;SDS011;51382;53.180;15.414;2022-08-05T01:14:34;46.20;;;8.60;;
20161;SDS011;51382;53.180;15.414;2022-08-05T01:29:49;42.20;;;8.20;;
20161;SDS011;51382;53.180;15.414;2022-08-05T01:45:03;31.80;;;7.40;;
20161;SDS011;51382;53.180;15.414;2022-08-05T02:00:16;37.10;;;7.20;;
20161;SDS011;51382;53.180;15.414;2022-08-05T02:15:29;46.10;;;8.60;;
20161;SDS011;51382;53.180;15.414;2022-08-05T02:30:43;20.20;;;6.00;;
20161;SDS011;51382;53.180;15.414;2022-08-05T02:45:55;27.10;;;7.10;;
20161;SDS011;51382;53.180;15.414;2022-08-05T03:01:06;28.40;;;7.00;;
20161;SDS011;51382;53.180;15.414;2022-08-05T03:16:19;29.50;;;6.50;;
20161;SDS011;51382;53.180;15.414;2022-08-05T03:31:30;42.70;;;8.00;;
20161;SDS011;51382;53.180;15.414;2022-08-05T03:46:42;24.80;;;6.50;;
20161;SDS011;51382;53.180;15.414;2022-08-05T04:01:55;23.50;;;7.10;;
20161;SDS011;51382;53.180;15.414;2022-08-05T04:17:08;25.90;;;6.80;;
20161;SDS011;51382;53.180;15.414;2022-08-05T04:32:20;28.40;;;7.00;;
20161;SDS011;51382;53.180;15.414;2022-08-05T04:47:31;17.70;;;6.50;;
20161;SDS011;51382;53.180;15.414;2022-08-05T05:02:42;40.70;;;7.80;;
20161;SDS011;51382;53.180;15.414;2022-08-05T05:17:53;22.80;;;6.20;;
20161;SDS011;51382;53.180;15.414;2022-08-05T05:33:06;28.50;;;6.70;;
20161;SDS011;51382;53.180;15.414;2022-08-05T05:48:12;25.40;;;6.20;;
20161;SDS011;51382;53.180;15.414;2022-08-05T06:03:23;26.20;;;6.10;;
20161;SDS011;51382;53.180;15.414;2022-08-05T06:18:29;29.90;;;7.20;;
20161;SDS011;51382;53.180;15.414;2022-08-05T06:33:35;29.20;;;7.30;;
20161;SDS011;51382;53.180;15.414;2022-08-05T06:48:45;22.20;;;6.40;;
20161;SDS011;51382;53.180;15.414;2022-08-05T07:03:57;23.00;;;6.90;;
20161;SDS011;51382;53.180;15.414;2022-08-05T07:19:07;23.30;;;6.70;;
20161;SDS011;51382;53.180;15.414;2022-08-05T07:34:18;31.10;;;7.40;;
20161;SDS011;51382;53.180;15.414;2022-08-05T07:49:29;21.00;;;6.90;;
20161;SDS011;51382;53.180;15.414;2022-08-05T08:04:40;27.10;;;7.00;;
20161;SDS011;51382;53.180;15.414;2022-08-05T08:19:52;21.10;;;6.60;;
20161;SDS011;51382;53.180;15.414;2022-08-05T08:35:03;22.80;;;6.50;;
20161;SDS011;51382;53.180;15.414;2022-08-05T08:50:15;37.60;;;7.00;;
20161;SDS011;51382;53.180;15.414;2022-08-05T09:05:22;29.00;;;6.90;;
20161;SDS011;51382;53.180;15.414;2022-08-05T09:20:33;33.90;;;7.50;;
20161;SDS011;51382;53.180;15.414;2022-08-05T09:35:56;28.00;;;7.80;;
20161;SDS011;51382;53.180;15.414;2022-08-05T09:51:09;33.30;;;8.30;;
20161;SDS011;51382;53.180;15.414;2022-08-05T10:06:21;42.40;;;9.10;;
20161;SDS011;51382;53.180;15.414;2022-08-05T10:21:32;27.70;;;6.60;;
20161;SDS011;51382;53.180;15.414;2022-08-05T10:36:43;27.60;;;7.20;;
20161;SDS011;51382;53.180;15.414;2022-08-05T10:51:55;32.90;;;7.40;;
20161;SDS011;51382;53.180;15.414;2022-08-05T11:07:06;35.90;;;8.40;;
20161;SDS011;51382;53.180;15.414;2022-08-05T11:22:41;65.80;;;11.10;;
20161;SDS011;51382;53.180;15.414;2022-08-05T11:38:07;50.30;;;8.50;;
20161;SDS011;51382;53.180;15.414;2022-08-05T11:53:19;71.20;;;10.20;;
20161;SDS011;51382;53.180;15.414;2022-08-05T12:08:30;34.40;;;6.00;;
20161;SDS011;51382;53.180;15.414;2022-08-05T12:23:51;34.80;;;5.10;;
20161;SDS011;51382;53.180;15.414;2022-08-05T12:39:04;38.90;;;4.50;;
20161;SDS011;51382;53.180;15.414;2022-08-05T12:54:21;36.40;;;4.10;;
20161;SDS011;51382;53.180;15.414;2022-08-05T13:09:33;27.80;;;3.70;;
20161;SDS011;51382;53.180;15.414;2022-08-05T13:24:44;24.10;;;3.60;;
20161;SDS011;51382;53.180;15.414;2022-08-05T13:39:56;39.90;;;4.50;;
20161;SDS011;51382;53.180;15.414;2022-08-05T13:55:07;34.70;;;4.20;;
20161;SDS011;51382;53.180;15.414;2022-08-05T14:10:20;35.20;;;4.20;;
20161;SDS011;51382;53.180;15.414;2022-08-05T14:25:31;30.20;;;4.40;;
20161;SDS011;51382;53.180;15.414;2022-08-05T14:40:42;26.50;;;3.90;;
20161;SDS011;51382;53.180;15.414;2022-08-05T14:55:53;48.80;;;5.50;;
20161;SDS011;51382;53.180;15.414;2022-08-05T15:11:04;50.90;;;6.10;;
20161;SDS011;51382;53.180;15.414;2022-08-05T15:26:16;34.60;;;5.00;;
20161;SDS011;51382;53.180;15.414;2022-08-05T15:41:27;81.40;;;8.80;;
20161;SDS011;51382;53.180;15.414;2022-08-05T15:56:38;42.40;;;5.50;;
20161;SDS011;51382;53.180;15.414;2022-08-05T16:11:49;33.40;;;4.60;;
20161;SDS011;51382;53.180;15.414;2022-08-05T16:27:02;33.60;;;4.50;;
20161;SDS011;51382;53.180;15.414;2022-08-05T16:42:08;31.80;;;4.20;;
20161;SDS011;51382;53.180;15.414;2022-08-05T16:57:19;44.40;;;5.50;;
20161;SDS011;51382;53.180;15.414;2022-08-05T17:12:33;31.20;;;4.30;;
20161;SDS011;51382;53.180;15.414;2022-08-05T17:27:44;35.10;;;4.90;;
20161;SDS011;51382;53.180;15.414;2022-08-05T17:42:55;42.40;;;5.20;;
20161;SDS011;51382;53.180;15.414;2022-08-05T17:58:07;50.70;;;7.20;;
20161;SDS011;51382;53.180;15.414;2022-08-05T18:13:18;33.50;;;5.10;;
20161;SDS011;51382;53.180;15.414;2022-08-05T18:28:29;47.20;;;5.90;;
20161;SDS011;51382;53.180;15.414;2022-08-05T18:43:41;36.50;;;6.30;;
20161;SDS011;51382;53.180;15.414;2022-08-05T18:58:52;38.50;;;5.70;;
20161;SDS011;51382;53.180;15.414;2022-08-05T19:14:03;38.50;;;6.20;;
20161;SDS011;51382;53.180;15.414;2022-08-05T19:29:15;39.00;;;6.60;;
20161;SDS011;51382;53.180;15.414;2022-08-05T19:44:26;39.50;;;5.30;;
20161;SDS011;51382;53.180;15.414;2022-08-05T19:59:38;30.30;;;3.30;;
20161;SDS011;51382;53.180;15.414;2022-08-05T20:14:49;37.50;;;4.80;;
20161;SDS011;51382;53.180;15.414;2022-08-05T20:29:58;16.30;;;2.70;;
20161;SDS011;51382;53.180;15.414;2022-08-05T20:45:10;32.70;;;4.20;;
20161;SDS011;51382;53.180;15.414;2022-08-05T21:00:21;34.60;;;4.30;;
20161;SDS011;51382;53.180;15.414;2022-08-05T21:15:32;32.30;;;4.10;;
20161;SDS011;51382;53.180;15.414;2022-08-05T21:30:39;28.20;;;3.70;;
20161;SDS011;51382;53.180;15.414;2022-08-05T21:45:45;36.20;;;4.20;;
20161;SDS011;51382;53.180;15.414;2022-08-05T22:00:56;22.10;;;3.10;;
20161;SDS011;51382;53.180;15.414;2022-08-05T22:16:07;34.60;;;3.50;;
20161;SDS011;51382;53.180;15.414;2022-08-05T22:31:18;45.50;;;4.20;;
20161;SDS011;51382;53.180;15.414;2022-08-05T22:46:30;33.80;;;3.50;;
20161;SDS011;51382;53.180;15.414;2022-08-05T23:01:41;23.40;;;3.20;;
20161;SDS011;51382;53.180;15.414;2022-08-05T23:16:52;47.00;;;5.30;;
20161;SDS011;51382;53.180;15.414;2022-08-05T23:32:20;36.60;;;4.00;;
20161;SDS011;51382;53.180;15.414;2022-08-05T23:47:32;15.60;;;2.30;;
